AirNav   Everest Fuels
 
 1309 users online  

19NH Lorden II Heliport
New Boston, New Hampshire, USA

GOING TO NEW BOSTON?


FAA INFORMATION EFFECTIVE 30 JANUARY 2020

Location

FAA Identifier: 19NH
Lat/Long: 42-58-41.5000N 071-41-37.7000W
42-58.691667N 071-41.628333W
42.9781944,-71.6938056
(estimated)
Elevation: 700 ft. / 213 m (estimated)
From city: 1 mile E of NEW BOSTON, NH
Time zone: UTC -5 (UTC -4 during Daylight Saving Time)
Zip code: 03070

Heliport Operations

Heliport use: Private use. Permission required prior to landing
Activation date: 07/2003
Control tower: no
ARTCC: BOSTON CENTER
FSS: BANGOR FLIGHT SERVICE STATION
Attendance: UNATNDD
Segmented circle: no

Heliport Communications

WX ASOS at MHT (12 nm E): 119.55 (603-621-1766)
WX AWOS-3PT at ASH (14 nm SE): 125.1 (603-578-0473)
WX ASOS at CON (16 nm NE): 132.325 (603-224-6558)
WX ASOS at AFN (17 nm SW): 135.875 (603-532-6195)

Nearby radio navigation aids

VOR radial/distance  VOR name  Freq  Var
CONr215/15.4CONCORD VOR/DME112.9015W
MHTr310/15.7MANCHESTER VOR/DME114.4015W
EENr081/28.5KEENE VORTAC109.4014W
LWMr313/30.0LAWRENCE VOR/DME112.5015W
GDMr046/30.5GARDNER VOR/DME110.6014W
PSMr276/38.3PEASE VOR/DME116.5016W

 
NDB name  Hdg/Dist  Freq  Var  ID
FITZY328/10.020915WMJ -- .---
EPSOM247/13.521616WCO -.-. ---
CLAREMONT144/37.823316WCNH -.-. -. ....

Heliport Services

Runway Information

Helipad H1

Dimensions: 20 x 20 ft. / 6 x 6 m
Surface: gravel
Traffic pattern: leftleft

Heliport Ownership and Management from official FAA records

Ownership: Privately-owned
Owner: THOMAS LORDEN
34 STABLE RD
MILFORD, NH 03055-3536
Phone (603) 759-4675
Manager: THOMAS LORDEN
34 STABLE RD
MILFORD, NH 03055-3536
Phone (603) 759-4675

Additional Remarks

OWNER DOES NOT WANT ARPT TO BE CHARTED.
FOR CD CTC BOSTON APCH AT 603-594-5551.

Instrument Procedures

There are no published instrument procedures at 19NH.

Some nearby airports with instrument procedures:

KMHT - Manchester Airport (12 nm E)
KASH - Boire Field Airport (14 nm SE)
KCON - Concord Municipal Airport (16 nm NE)
KAFN - Jaffrey Airport-Silver Ranch (17 nm SW)
KFIT - Fitchburg Municipal Airport (26 nm S)
 
Loc | Ops | Rwys | IFR | FBO | Links
Com | Nav | Svcs | Stats | Notes
Area around 19NH (Lorden II Heliport)
 
Road maps at: MapQuest Bing Google
 
Aerial photo
No photo
 
Sectional chart

 
Airport distance calculator
Flying to Lorden II Heliport? Find the distance to fly.

From to 19NH

Sunrise and sunset
Times for 17-Feb-2020
 Local
(UTC-5)
 Zulu
(UTC)
Morning civil twilight06:1311:13
Sunrise06:4211:42
Sunset17:1922:19
Evening civil twilight17:4822:48

Current date and time
Zulu (UTC)  17-Feb-2020 15:35:34
Local (UTC-5)  17-Feb-2020 10:35:34
 
METAR
KMHT 
12nm E 
171453Z 29011G20KT 10SM FEW050 03/M09 A3017 RMK AO2 SLP236 T00331094 51021
KASH 
15nm SE 
171456Z 29014G19KT 10SM SCT049 03/M07 A3020 RMK AO2 SLP233 T00331072 51019
KCON 
16nm NE 
171451Z AUTO 30009KT 10SM CLR 02/M09 A3018 RMK AO2 SLP224 T00171089 51020
KAFN 
17nm SW 
171452Z AUTO 00000KT 10SM BKN038 02/M08 A3016 RMK AO2 SLP230 T00171078 51020
TAF
KMHT 
12nm E 
171132Z 1712/1812 VRB03KT P6SM FEW150 FM171400 30005KT P6SM SKC FM171800 31008G15KT P6SM FEW040 FM172300 VRB03KT P6SM FEW150
KCON 
16nm NE 
171132Z 1712/1812 VRB03KT P6SM SCT150 FM171400 30005KT P6SM SKC FM171800 31008G15KT P6SM FEW040 FM172300 VRB04KT P6SM SKC
NOTAMs
Click for the latest NOTAMs
NOTAMs are issued by the DoD/FAA and will open in a separate window not controlled by AirNav.

 

 
 

Would you like to see your business listed on this page?

 If your business provides an interesting product or service to pilots, flight crews, aircraft, or users of the Lorden II Heliport, you should consider listing it here.  To start the listing process, click on the button below
 
Add a business
 

Other Pages about Lorden II Heliport

Update a link
 
Copyright © AirNav, LLC. All rights reserved. Privacy Policy  Contact